TimeEDT,TemperatureF,Dew PointF,Humidity,Sea Level PressureIn,VisibilityMPH,Wind Direction,Wind SpeedMPH,Gust SpeedMPH,PrecipitationIn,Events,Conditions,WindDirDegrees,DateUTC
12:37 AM,41.0,39.2,93,30.06,10.0,SSE,15.0,-,N/A,,Overcast,150,2012-10-14 04:37:00
12:41 AM,41.0,39.2,93,30.06,10.0,SSE,15.0,-,N/A,,Overcast,160,2012-10-14 04:41:00
12:49 AM,41.0,39.2,93,30.05,10.0,South,12.7,-,N/A,,Overcast,170,2012-10-14 04:49:00
12:52 AM,41.0,39.2,93,30.05,10.0,SSE,13.8,-,N/A,,Overcast,160,2012-10-14 04:52:00
12:55 AM,40.5,40.1,99,30.05,10.0,SSE,16.1,-,0.04,,Overcast,160,2012-10-14 04:55:00
1:01 AM,41.0,41.0,100,30.05,10.0,South,13.8,-,N/A,,Overcast,170,2012-10-14 05:01:00
1:04 AM,41.0,41.0,100,30.05,10.0,SSE,15.0,-,N/A,,Overcast,160,2012-10-14 05:04:00
1:54 AM,41.0,41.0,100,30.01,7.0,SSE,17.3,-,N/A,,Overcast,150,2012-10-14 05:54:00
1:55 AM,40.8,40.8,100,30.01,7.0,SSE,17.3,-,0.05,,Overcast,150,2012-10-14 05:55:00
1:58 AM,41.0,41.0,100,30.01,7.0,SSE,17.3,-,N/A,,Overcast,160,2012-10-14 05:58:00
2:03 AM,41.0,41.0,100,30.01,9.0,SSE,16.1,-,N/A,,Overcast,160,2012-10-14 06:03:00
2:19 AM,41.0,41.0,100,30.00,10.0,SSE,16.1,-,N/A,Rain,Light Rain,150,2012-10-14 06:19:00
2:46 AM,41.0,41.0,100,29.99,10.0,SSE,15.0,-,N/A,,Overcast,160,2012-10-14 06:46:00
2:55 AM,41.5,41.5,100,29.98,10.0,SSE,13.8,-,0.03,,Overcast,160,2012-10-14 06:55:00
3:00 AM,41.0,41.0,100,29.97,10.0,SSE,11.5,-,N/A,,Overcast,160,2012-10-14 07:00:00
3:12 AM,41.0,41.0,100,29.97,10.0,SSE,15.0,-,N/A,Rain,Light Rain,150,2012-10-14 07:12:00
3:15 AM,41.0,41.0,100,29.97,10.0,SSE,16.1,-,N/A,,Overcast,160,2012-10-14 07:15:00
3:17 AM,41.0,41.0,100,29.96,10.0,SSE,15.0,-,N/A,,Overcast,150,2012-10-14 07:17:00
3:23 AM,41.0,41.0,100,29.96,10.0,SSE,12.7,-,N/A,,Overcast,160,2012-10-14 07:23:00
3:25 AM,41.0,41.0,100,29.96,10.0,SSE,13.8,-,N/A,,Overcast,160,2012-10-14 07:25:00
3:27 AM,41.0,41.0,100,29.96,10.0,SSE,15.0,-,N/A,,Overcast,160,2012-10-14 07:27:00
3:55 AM,41.7,41.7,100,29.95,10.0,SSE,15.0,-,0.02,Rain,Light Rain,160,2012-10-14 07:55:00
4:24 AM,42.8,42.8,100,29.95,10.0,SSE,13.8,-,N/A,Rain,Light Rain,160,2012-10-14 08:24:00
4:27 AM,42.8,42.8,100,29.94,10.0,SSE,15.0,-,N/A,Rain,Light Rain,160,2012-10-14 08:27:00
4:55 AM,43.0,43.0,100,29.94,10.0,SSE,13.8,-,0.02,,Overcast,160,2012-10-14 08:55:00
5:02 AM,42.8,42.8,100,29.94,10.0,SSE,13.8,-,N/A,,Overcast,150,2012-10-14 09:02:00
5:28 AM,42.8,42.8,100,29.94,10.0,SSE,15.0,-,N/A,,Overcast,160,2012-10-14 09:28:00
5:38 AM,44.6,44.6,100,29.94,10.0,SSE,12.7,-,N/A,,Overcast,160,2012-10-14 09:38:00
5:55 AM,43.5,43.5,100,29.93,10.0,SSE,12.7,-,0.01,,Overcast,150,2012-10-14 09:55:00
6:20 AM,42.8,42.8,100,29.93,9.0,SSE,11.5,-,N/A,,Overcast,150,2012-10-14 10:20:00
6:27 AM,44.6,44.6,100,29.93,8.0,SSE,12.7,-,N/A,,Overcast,150,2012-10-14 10:27:00
6:33 AM,44.6,44.6,100,29.94,9.0,SSE,12.7,-,N/A,,Overcast,150,2012-10-14 10:33:00
6:38 AM,44.6,44.6,100,29.94,9.0,SSE,11.5,-,N/A,,Light Drizzle,150,2012-10-14 10:38:00
6:44 AM,44.6,44.6,100,29.94,8.0,SSE,13.8,-,N/A,,Light Drizzle,150,2012-10-14 10:44:00
6:55 AM,44.2,44.2,100,29.94,7.0,SSE,12.7,-,0.00,Rain,Light Rain,150,2012-10-14 10:55:00
7:00 AM,44.6,44.6,100,29.94,6.0,SSE,12.7,-,N/A,Rain,Light Rain,150,2012-10-14 11:00:00
7:05 AM,44.6,44.6,100,29.93,5.0,SSE,13.8,-,N/A,Rain,Light Rain,150,2012-10-14 11:05:00
7:06 AM,44.6,44.6,100,29.94,5.0,SSE,12.7,-,N/A,Rain,Light Rain,150,2012-10-14 11:06:00
7:08 AM,44.6,44.6,100,29.94,5.0,SSE,11.5,-,N/A,Rain,Light Rain,150,2012-10-14 11:08:00
7:11 AM,44.6,44.6,100,29.94,5.0,SSE,11.5,-,N/A,,Overcast,150,2012-10-14 11:11:00
7:21 AM,44.6,44.6,100,29.94,5.0,SE,12.7,-,N/A,,Light Drizzle,140,2012-10-14 11:21:00
7:24 AM,44.6,44.6,100,29.94,4.0,SE,11.5,-,N/A,Rain,Light Rain,140,2012-10-14 11:24:00
7:26 AM,44.6,44.6,100,29.94,4.0,SSE,11.5,-,N/A,Rain,Light Rain,150,2012-10-14 11:26:00
7:27 AM,44.6,44.6,100,29.94,4.0,SSE,11.5,-,N/A,Rain,Light Rain,150,2012-10-14 11:27:00
7:32 AM,44.6,44.6,100,29.94,4.0,SE,12.7,-,N/A,Rain,Light Rain,140,2012-10-14 11:32:00
7:55 AM,44.8,44.8,100,29.94,3.0,SSE,11.5,-,0.02,Rain,Light Rain,150,2012-10-14 11:55:00
8:05 AM,44.6,44.6,100,29.94,4.0,SSE,12.7,-,N/A,,Light Drizzle,150,2012-10-14 12:05:00
8:29 AM,44.6,44.6,100,29.95,4.0,SE,11.5,-,N/A,,Light Drizzle,140,2012-10-14 12:29:00
8:35 AM,46.4,46.4,100,29.95,3.0,SE,11.5,-,N/A,Rain,Light Rain,140,2012-10-14 12:35:00
8:38 AM,46.4,46.4,100,29.95,2.5,SE,10.4,-,N/A,Rain,Light Rain,140,2012-10-14 12:38:00
8:42 AM,46.4,46.4,100,29.95,3.0,SSE,11.5,-,N/A,Rain,Light Rain,150,2012-10-14 12:42:00
8:45 AM,46.4,46.4,100,29.95,3.0,SE,10.4,-,N/A,Rain,Light Rain,140,2012-10-14 12:45:00
8:47 AM,46.4,46.4,100,29.95,3.0,SE,10.4,-,N/A,,Overcast,140,2012-10-14 12:47:00
8:49 AM,46.4,46.4,100,29.95,3.0,SE,10.4,-,N/A,Rain,Light Rain,140,2012-10-14 12:49:00
8:55 AM,45.9,45.9,100,29.95,3.0,SE,11.5,-,0.02,Rain,Light Rain,140,2012-10-14 12:55:00
9:28 AM,46.4,46.4,100,29.96,5.0,SE,10.4,-,N/A,,Light Drizzle,140,2012-10-14 13:28:00
9:29 AM,46.4,46.4,100,29.96,5.0,SE,11.5,-,N/A,,Light Drizzle,140,2012-10-14 13:29:00
9:53 AM,46.4,46.4,100,29.96,6.0,SE,11.5,-,N/A,,Overcast,140,2012-10-14 13:53:00
9:55 AM,46.6,46.6,100,29.96,7.0,SE,11.5,-,0.02,,Overcast,140,2012-10-14 13:55:00
10:04 AM,46.4,46.4,100,29.96,10.0,SE,11.5,-,N/A,,Overcast,140,2012-10-14 14:04:00
10:12 AM,46.4,46.4,100,29.96,10.0,SE,10.4,-,N/A,,Overcast,140,2012-10-14 14:12:00
10:46 AM,48.2,48.2,100,29.95,10.0,SE,11.5,-,N/A,,Overcast,140,2012-10-14 14:46:00
10:52 AM,48.2,48.2,100,29.95,10.0,SE,11.5,-,N/A,Rain,Light Rain,140,2012-10-14 14:52:00
10:55 AM,48.0,48.0,100,29.95,10.0,SE,11.5,-,0.00,Rain,Light Rain,140,2012-10-14 14:55:00
11:22 AM,48.2,48.2,100,29.94,10.0,SE,10.4,-,N/A,,Overcast,140,2012-10-14 15:22:00
11:31 AM,48.2,48.2,100,29.94,10.0,SE,9.2,-,N/A,Rain,Light Rain,140,2012-10-14 15:31:00
11:53 AM,50.0,50.0,100,29.93,10.0,SE,10.4,-,N/A,,Light Drizzle,140,2012-10-14 15:53:00
11:55 AM,50.0,50.0,100,29.93,10.0,SE,9.2,-,0.03,,Overcast,140,2012-10-14 15:55:00
12:05 PM,50.0,50.0,100,29.93,10.0,SE,8.1,-,N/A,,Overcast,140,2012-10-14 16:05:00
12:23 PM,51.8,51.8,100,29.92,10.0,SE,10.4,-,N/A,,Overcast,130,2012-10-14 16:23:00
12:24 PM,51.8,51.8,100,29.92,10.0,SE,11.5,-,N/A,,Overcast,130,2012-10-14 16:24:00
12:28 PM,51.8,51.8,100,29.91,10.0,SE,10.4,-,N/A,,Overcast,140,2012-10-14 16:28:00
12:55 PM,51.3,51.3,100,29.91,10.0,SE,11.5,-,N/A,,Overcast,140,2012-10-14 16:55:00
1:55 PM,53.8,53.8,100,29.88,10.0,SE,10.4,-,N/A,,Overcast,140,2012-10-14 17:55:00
2:55 PM,56.5,56.5,100,29.85,10.0,SE,10.4,-,N/A,,Overcast,140,2012-10-14 18:55:00
3:14 PM,57.2,57.2,100,29.83,10.0,SSE,10.4,-,N/A,,Overcast,150,2012-10-14 19:14:00
3:30 PM,57.2,57.2,100,29.83,10.0,SE,9.2,-,N/A,,Overcast,140,2012-10-14 19:30:00
3:55 PM,58.8,58.3,98,29.82,10.0,SE,10.4,-,N/A,,Overcast,140,2012-10-14 19:55:00
4:55 PM,60.8,58.3,91,29.79,10.0,SSE,13.8,-,N/A,,Overcast,150,2012-10-14 20:55:00
4:58 PM,60.8,59.0,94,29.79,10.0,SSE,12.7,-,N/A,,Overcast,150,2012-10-14 20:58:00
5:55 PM,60.8,58.5,92,29.77,10.0,SSE,13.8,-,N/A,,Mostly Cloudy,150,2012-10-14 21:55:00
6:55 PM,62.1,58.1,87,29.75,10.0,SSE,11.5,-,N/A,,Scattered Clouds,150,2012-10-14 22:55:00
7:55 PM,62.6,57.2,82,29.73,10.0,South,19.6,24.2,N/A,,Clear,170,2012-10-14 23:55:00
8:55 PM,65.8,56.5,72,29.72,10.0,South,21.9,31.1,N/A,,Scattered Clouds,190,2012-10-15 00:55:00
9:40 PM,66.2,57.2,73,29.70,10.0,SSW,21.9,31.1,N/A,,Light Drizzle,200,2012-10-15 01:40:00
9:50 PM,66.2,57.2,73,29.71,10.0,SSW,21.9,33.4,N/A,Rain,Light Rain,200,2012-10-15 01:50:00
9:55 PM,65.5,57.0,74,29.71,10.0,South,19.6,33.4,0.00,Rain,Light Rain,190,2012-10-15 01:55:00
10:55 PM,63.7,56.8,78,29.70,10.0,South,20.7,31.1,0.00,,Light Drizzle,190,2012-10-15 02:55:00
11:38 PM,62.6,57.2,82,29.69,10.0,South,19.6,27.6,N/A,,Mostly Cloudy,180,2012-10-15 03:38:00
11:48 PM,62.6,57.2,82,29.69,10.0,South,17.3,24.2,N/A,,Light Drizzle,180,2012-10-15 03:48:00
11:55 PM,61.9,56.7,83,29.69,10.0,South,16.1,-,0.00,Rain,Light Rain,180,2012-10-15 03:55:00